sensor_id;sensor_type;location;lat;lon;timestamp;temperature;humidity
3202;DHT22;34843;48.744;8.958;2023-06-14T00:01:57;11.30;99.90
3202;DHT22;34843;48.744;8.958;2023-06-14T00:04:23;11.20;99.90
3202;DHT22;34843;48.744;8.958;2023-06-14T00:06:50;11.10;99.90
3202;DHT22;34843;48.744;8.958;2023-06-14T00:09:16;11.10;99.90
3202;DHT22;34843;48.744;8.958;2023-06-14T00:11:43;11.00;99.90
3202;DHT22;34843;48.744;8.958;2023-06-14T00:14:09;11.00;99.90
3202;DHT22;34843;48.744;8.958;2023-06-14T00:16:35;11.00;99.90
3202;DHT22;34843;48.744;8.958;2023-06-14T00:19:02;11.00;99.90
3202;DHT22;34843;48.744;8.958;2023-06-14T00:21:31;11.00;99.90
3202;DHT22;34843;48.744;8.958;2023-06-14T00:24:00;11.00;99.90
3202;DHT22;34843;48.744;8.958;2023-06-14T00:26:26;10.90;99.90
3202;DHT22;34843;48.744;8.958;2023-06-14T00:28:52;10.90;99.90
3202;DHT22;34843;48.744;8.958;2023-06-14T00:31:18;10.90;99.90
3202;DHT22;34843;48.744;8.958;2023-06-14T00:33:43;10.80;99.90
3202;DHT22;34843;48.744;8.958;2023-06-14T00:36:09;10.80;99.90
3202;DHT22;34843;48.744;8.958;2023-06-14T00:38:34;10.90;99.90
3202;DHT22;34843;48.744;8.958;2023-06-14T00:41:00;10.90;99.90
3202;DHT22;34843;48.744;8.958;2023-06-14T00:43:26;10.90;99.90
3202;DHT22;34843;48.744;8.958;2023-06-14T00:45:51;10.90;99.90
3202;DHT22;34843;48.744;8.958;2023-06-14T00:48:17;10.80;99.90
3202;DHT22;34843;48.744;8.958;2023-06-14T00:50:44;10.80;99.90
3202;DHT22;34843;48.744;8.958;2023-06-14T00:53:14;10.70;99.90
3202;DHT22;34843;48.744;8.958;2023-06-14T00:55:43;10.60;99.90
3202;DHT22;34843;48.744;8.958;2023-06-14T00:58:09;10.50;99.90
3202;DHT22;34843;48.744;8.958;2023-06-14T01:00:34;10.40;99.90
3202;DHT22;34843;48.744;8.958;2023-06-14T01:03:01;10.40;99.90
3202;DHT22;34843;48.744;8.958;2023-06-14T01:05:27;10.30;99.90
3202;DHT22;34843;48.744;8.958;2023-06-14T01:10:35;10.20;99.90
3202;DHT22;34843;48.744;8.958;2023-06-14T01:13:19;10.10;99.90
3202;DHT22;34843;48.744;8.958;2023-06-14T01:15:46;10.00;99.90
3202;DHT22;34843;48.744;8.958;2023-06-14T01:18:12;10.00;99.90
3202;DHT22;34843;48.744;8.958;2023-06-14T01:20:46;9.90;99.90
3202;DHT22;34843;48.744;8.958;2023-06-14T01:23:19;9.90;99.90
3202;DHT22;34843;48.744;8.958;2023-06-14T01:25:45;9.80;99.90
3202;DHT22;34843;48.744;8.958;2023-06-14T01:28:12;9.80;99.90
3202;DHT22;34843;48.744;8.958;2023-06-14T01:30:41;9.80;99.90
3202;DHT22;34843;48.744;8.958;2023-06-14T01:33:13;9.80;99.90
3202;DHT22;34843;48.744;8.958;2023-06-14T01:35:44;9.70;99.90
3202;DHT22;34843;48.744;8.958;2023-06-14T01:38:10;9.70;99.90
3202;DHT22;34843;48.744;8.958;2023-06-14T01:40:36;9.60;99.90
3202;DHT22;34843;48.744;8.958;2023-06-14T01:43:03;9.60;99.90
3202;DHT22;34843;48.744;8.958;2023-06-14T01:45:29;9.50;99.90
3202;DHT22;34843;48.744;8.958;2023-06-14T01:47:55;9.60;99.90
3202;DHT22;34843;48.744;8.958;2023-06-14T01:50:21;9.60;99.90
3202;DHT22;34843;48.744;8.958;2023-06-14T01:52:46;9.50;99.90
3202;DHT22;34843;48.744;8.958;2023-06-14T01:55:12;9.50;99.90
3202;DHT22;34843;48.744;8.958;2023-06-14T01:57:38;9.60;99.90
3202;DHT22;34843;48.744;8.958;2023-06-14T02:00:04;9.60;99.90
3202;DHT22;34843;48.744;8.958;2023-06-14T02:02:33;9.50;99.90
3202;DHT22;34843;48.744;8.958;2023-06-14T02:04:59;9.50;99.90
3202;DHT22;34843;48.744;8.958;2023-06-14T02:07:24;9.60;99.90
3202;DHT22;34843;48.744;8.958;2023-06-14T02:09:50;9.50;99.90
3202;DHT22;34843;48.744;8.958;2023-06-14T02:12:15;9.50;99.90
3202;DHT22;34843;48.744;8.958;2023-06-14T02:14:41;9.50;99.90
3202;DHT22;34843;48.744;8.958;2023-06-14T02:17:07;9.50;99.90
3202;DHT22;34843;48.744;8.958;2023-06-14T02:19:33;9.40;99.90
3202;DHT22;34843;48.744;8.958;2023-06-14T02:21:59;9.40;99.90
3202;DHT22;34843;48.744;8.958;2023-06-14T02:24:24;9.40;99.90
3202;DHT22;34843;48.744;8.958;2023-06-14T02:26:50;9.40;99.90
3202;DHT22;34843;48.744;8.958;2023-06-14T02:29:15;9.40;99.90
3202;DHT22;34843;48.744;8.958;2023-06-14T02:31:41;9.30;99.90
3202;DHT22;34843;48.744;8.958;2023-06-14T02:34:07;9.30;99.90
3202;DHT22;34843;48.744;8.958;2023-06-14T02:36:34;9.20;99.90
3202;DHT22;34843;48.744;8.958;2023-06-14T02:39:00;9.10;99.90
3202;DHT22;34843;48.744;8.958;2023-06-14T02:41:26;9.00;99.90
3202;DHT22;34843;48.744;8.958;2023-06-14T02:43:52;8.90;99.90
3202;DHT22;34843;48.744;8.958;2023-06-14T02:46:18;8.80;99.90
3202;DHT22;34843;48.744;8.958;2023-06-14T02:48:44;8.80;99.90
3202;DHT22;34843;48.744;8.958;2023-06-14T02:51:09;8.70;99.90
3202;DHT22;34843;48.744;8.958;2023-06-14T02:53:35;8.60;99.90
3202;DHT22;34843;48.744;8.958;2023-06-14T02:56:02;8.60;99.90
3202;DHT22;34843;48.744;8.958;2023-06-14T02:58:29;8.60;99.90
3202;DHT22;34843;48.744;8.958;2023-06-14T03:00:54;8.50;99.90
3202;DHT22;34843;48.744;8.958;2023-06-14T03:03:20;8.60;99.90
3202;DHT22;34843;48.744;8.958;2023-06-14T03:05:47;8.60;99.90
3202;DHT22;34843;48.744;8.958;2023-06-14T03:08:15;8.60;99.90
3202;DHT22;34843;48.744;8.958;2023-06-14T03:10:45;8.70;99.90
3202;DHT22;34843;48.744;8.958;2023-06-14T03:13:11;8.70;99.90
3202;DHT22;34843;48.744;8.958;2023-06-14T03:15:37;8.60;99.90
3202;DHT22;34843;48.744;8.958;2023-06-14T03:18:04;8.70;99.90
3202;DHT22;34843;48.744;8.958;2023-06-14T03:20:30;8.70;99.90
3202;DHT22;34843;48.744;8.958;2023-06-14T03:23:02;8.60;99.90
3202;DHT22;34843;48.744;8.958;2023-06-14T03:25:28;8.60;99.90
3202;DHT22;34843;48.744;8.958;2023-06-14T03:27:57;8.60;99.90
3202;DHT22;34843;48.744;8.958;2023-06-14T03:30:22;8.60;99.90
3202;DHT22;34843;48.744;8.958;2023-06-14T03:32:48;8.60;99.90
3202;DHT22;34843;48.744;8.958;2023-06-14T03:35:14;8.60;99.90
3202;DHT22;34843;48.744;8.958;2023-06-14T03:37:43;8.60;99.90
3202;DHT22;34843;48.744;8.958;2023-06-14T03:40:11;8.60;99.90
3202;DHT22;34843;48.744;8.958;2023-06-14T03:42:37;8.60;99.90
3202;DHT22;34843;48.744;8.958;2023-06-14T03:45:03;8.60;99.90
3202;DHT22;34843;48.744;8.958;2023-06-14T03:47:28;8.70;99.90
3202;DHT22;34843;48.744;8.958;2023-06-14T03:49:54;8.80;99.90
3202;DHT22;34843;48.744;8.958;2023-06-14T03:52:19;8.90;99.90
3202;DHT22;34843;48.744;8.958;2023-06-14T03:54:46;9.00;99.90
3202;DHT22;34843;48.744;8.958;2023-06-14T03:57:12;9.00;99.90
3202;DHT22;34843;48.744;8.958;2023-06-14T03:59:37;9.30;99.90
3202;DHT22;34843;48.744;8.958;2023-06-14T04:02:03;10.00;99.90
3202;DHT22;34843;48.744;8.958;2023-06-14T04:04:28;10.80;99.90
3202;DHT22;34843;48.744;8.958;2023-06-14T04:06:55;11.70;99.90
3202;DHT22;34843;48.744;8.958;2023-06-14T04:09:22;12.70;99.90
3202;DHT22;34843;48.744;8.958;2023-06-14T04:11:48;13.50;99.90
3202;DHT22;34843;48.744;8.958;2023-06-14T04:14:13;14.40;99.90
3202;DHT22;34843;48.744;8.958;2023-06-14T04:16:39;15.30;99.90
3202;DHT22;34843;48.744;8.958;2023-06-14T04:19:04;16.00;99.90
3202;DHT22;34843;48.744;8.958;2023-06-14T04:21:30;16.70;99.90
3202;DHT22;34843;48.744;8.958;2023-06-14T04:23:55;17.60;99.90
3202;DHT22;34843;48.744;8.958;2023-06-14T04:26:22;18.30;99.90
3202;DHT22;34843;48.744;8.958;2023-06-14T04:28:49;19.20;99.90
3202;DHT22;34843;48.744;8.958;2023-06-14T04:31:16;19.60;99.90
3202;DHT22;34843;48.744;8.958;2023-06-14T04:33:42;20.20;99.90
3202;DHT22;34843;48.744;8.958;2023-06-14T04:36:12;20.60;99.90
3202;DHT22;34843;48.744;8.958;2023-06-14T04:38:39;21.00;99.90
3202;DHT22;34843;48.744;8.958;2023-06-14T04:41:04;21.40;99.90
3202;DHT22;34843;48.744;8.958;2023-06-14T04:43:31;21.70;99.90
3202;DHT22;34843;48.744;8.958;2023-06-14T04:46:02;21.90;99.90
3202;DHT22;34843;48.744;8.958;2023-06-14T04:48:28;22.40;99.90
3202;DHT22;34843;48.744;8.958;2023-06-14T04:50:54;22.90;99.90
3202;DHT22;34843;48.744;8.958;2023-06-14T04:53:20;23.80;99.90
3202;DHT22;34843;48.744;8.958;2023-06-14T04:55:48;24.60;99.90
3202;DHT22;34843;48.744;8.958;2023-06-14T04:58:14;25.70;98.80
3202;DHT22;34843;48.744;8.958;2023-06-14T05:00:39;26.20;96.80
3202;DHT22;34843;48.744;8.958;2023-06-14T05:03:05;27.00;95.30
3202;DHT22;34843;48.744;8.958;2023-06-14T05:05:31;27.40;93.50
3202;DHT22;34843;48.744;8.958;2023-06-14T05:07:57;28.00;92.10
3202;DHT22;34843;48.744;8.958;2023-06-14T05:10:24;28.50;90.80
3202;DHT22;34843;48.744;8.958;2023-06-14T05:12:49;28.60;89.30
3202;DHT22;34843;48.744;8.958;2023-06-14T05:15:15;29.20;87.20
3202;DHT22;34843;48.744;8.958;2023-06-14T05:17:41;29.80;84.40
3202;DHT22;34843;48.744;8.958;2023-06-14T05:20:08;30.40;81.70
3202;DHT22;34843;48.744;8.958;2023-06-14T05:22:35;31.00;79.90
3202;DHT22;34843;48.744;8.958;2023-06-14T05:25:01;31.30;78.10
3202;DHT22;34843;48.744;8.958;2023-06-14T05:27:27;31.60;75.30
3202;DHT22;34843;48.744;8.958;2023-06-14T05:29:53;31.80;75.10
3202;DHT22;34843;48.744;8.958;2023-06-14T05:32:21;31.60;73.60
3202;DHT22;34843;48.744;8.958;2023-06-14T05:34:46;30.80;73.40
3202;DHT22;34843;48.744;8.958;2023-06-14T05:37:12;30.70;74.00
3202;DHT22;34843;48.744;8.958;2023-06-14T05:39:38;30.30;74.40
3202;DHT22;34843;48.744;8.958;2023-06-14T05:42:04;29.80;76.00
3202;DHT22;34843;48.744;8.958;2023-06-14T05:44:29;30.30;76.10
3202;DHT22;34843;48.744;8.958;2023-06-14T05:46:55;30.50;74.80
3202;DHT22;34843;48.744;8.958;2023-06-14T05:49:20;30.50;74.20
3202;DHT22;34843;48.744;8.958;2023-06-14T05:51:46;30.70;74.80
3202;DHT22;34843;48.744;8.958;2023-06-14T05:54:11;30.60;74.00
3202;DHT22;34843;48.744;8.958;2023-06-14T05:56:37;30.30;72.50
3202;DHT22;34843;48.744;8.958;2023-06-14T05:59:02;30.10;73.50
3202;DHT22;34843;48.744;8.958;2023-06-14T06:01:28;30.10;73.80
3202;DHT22;34843;48.744;8.958;2023-06-14T06:03:53;30.20;73.20
3202;DHT22;34843;48.744;8.958;2023-06-14T06:06:19;29.90;75.20
3202;DHT22;34843;48.744;8.958;2023-06-14T06:08:45;30.00;72.70
3202;DHT22;34843;48.744;8.958;2023-06-14T06:11:10;29.10;73.70
3202;DHT22;34843;48.744;8.958;2023-06-14T06:13:36;29.10;75.40
3202;DHT22;34843;48.744;8.958;2023-06-14T06:16:03;29.50;74.20
3202;DHT22;34843;48.744;8.958;2023-06-14T06:18:28;29.60;74.00
3202;DHT22;34843;48.744;8.958;2023-06-14T06:20:54;30.10;73.80
3202;DHT22;34843;48.744;8.958;2023-06-14T06:23:20;30.20;72.70
3202;DHT22;34843;48.744;8.958;2023-06-14T06:25:46;29.60;74.80
3202;DHT22;34843;48.744;8.958;2023-06-14T06:28:12;30.10;74.10
3202;DHT22;34843;48.744;8.958;2023-06-14T06:30:38;29.90;74.20
3202;DHT22;34843;48.744;8.958;2023-06-14T06:33:03;29.50;72.90
3202;DHT22;34843;48.744;8.958;2023-06-14T06:35:29;29.50;73.80
3202;DHT22;34843;48.744;8.958;2023-06-14T06:37:56;29.80;72.70
3202;DHT22;34843;48.744;8.958;2023-06-14T06:40:22;29.90;73.30
3202;DHT22;34843;48.744;8.958;2023-06-14T06:42:47;29.90;73.20
3202;DHT22;34843;48.744;8.958;2023-06-14T06:45:13;30.30;73.70
3202;DHT22;34843;48.744;8.958;2023-06-14T06:47:38;30.90;72.20
3202;DHT22;34843;48.744;8.958;2023-06-14T06:50:04;31.10;71.80
3202;DHT22;34843;48.744;8.958;2023-06-14T06:52:31;31.60;71.30
3202;DHT22;34843;48.744;8.958;2023-06-14T06:54:57;32.60;68.30
3202;DHT22;34843;48.744;8.958;2023-06-14T06:57:22;33.10;64.50
3202;DHT22;34843;48.744;8.958;2023-06-14T06:59:49;32.50;64.20
3202;DHT22;34843;48.744;8.958;2023-06-14T07:02:14;33.00;64.50
3202;DHT22;34843;48.744;8.958;2023-06-14T07:04:40;32.80;64.70
3202;DHT22;34843;48.744;8.958;2023-06-14T07:07:06;33.30;64.20
3202;DHT22;34843;48.744;8.958;2023-06-14T07:09:32;34.00;63.80
3202;DHT22;34843;48.744;8.958;2023-06-14T07:11:57;33.10;62.60
3202;DHT22;34843;48.744;8.958;2023-06-14T07:14:23;32.40;63.50
3202;DHT22;34843;48.744;8.958;2023-06-14T07:16:49;32.60;63.40
3202;DHT22;34843;48.744;8.958;2023-06-14T07:19:15;32.70;63.10
3202;DHT22;34843;48.744;8.958;2023-06-14T07:21:41;33.20;62.70
3202;DHT22;34843;48.744;8.958;2023-06-14T07:24:06;33.30;62.20
3202;DHT22;34843;48.744;8.958;2023-06-14T07:26:33;33.20;61.30
3202;DHT22;34843;48.744;8.958;2023-06-14T07:28:59;33.00;60.80
3202;DHT22;34843;48.744;8.958;2023-06-14T07:31:24;32.40;59.30
3202;DHT22;34843;48.744;8.958;2023-06-14T07:33:50;31.90;59.10
3202;DHT22;34843;48.744;8.958;2023-06-14T07:36:15;31.30;61.20
3202;DHT22;34843;48.744;8.958;2023-06-14T07:38:43;30.80;61.20
3202;DHT22;34843;48.744;8.958;2023-06-14T07:41:08;30.40;62.80
3202;DHT22;34843;48.744;8.958;2023-06-14T07:43:34;31.30;62.30
3202;DHT22;34843;48.744;8.958;2023-06-14T07:46:00;30.50;61.10
3202;DHT22;34843;48.744;8.958;2023-06-14T07:48:26;30.90;61.60
3202;DHT22;34843;48.744;8.958;2023-06-14T07:50:51;31.50;62.20
3202;DHT22;34843;48.744;8.958;2023-06-14T07:53:17;30.50;61.30
3202;DHT22;34843;48.744;8.958;2023-06-14T07:55:42;29.90;62.10
3202;DHT22;34843;48.744;8.958;2023-06-14T07:58:09;29.50;63.60
3202;DHT22;34843;48.744;8.958;2023-06-14T08:00:35;29.60;65.10
3202;DHT22;34843;48.744;8.958;2023-06-14T08:03:00;30.90;64.90
3202;DHT22;34843;48.744;8.958;2023-06-14T08:05:26;32.00;63.40
3202;DHT22;34843;48.744;8.958;2023-06-14T08:07:52;32.80;62.70
3202;DHT22;34843;48.744;8.958;2023-06-14T08:10:18;32.60;62.40
3202;DHT22;34843;48.744;8.958;2023-06-14T08:12:43;31.30;63.30
3202;DHT22;34843;48.744;8.958;2023-06-14T08:15:09;31.10;63.30
3202;DHT22;34843;48.744;8.958;2023-06-14T08:17:35;31.50;62.10
3202;DHT22;34843;48.744;8.958;2023-06-14T08:20:01;31.00;63.20
3202;DHT22;34843;48.744;8.958;2023-06-14T08:22:29;29.80;64.30
3202;DHT22;34843;48.744;8.958;2023-06-14T08:24:57;29.70;66.70
3202;DHT22;34843;48.744;8.958;2023-06-14T08:27:23;30.40;65.60
3202;DHT22;34843;48.744;8.958;2023-06-14T08:29:49;31.00;64.10
3202;DHT22;34843;48.744;8.958;2023-06-14T08:32:15;30.90;64.10
3202;DHT22;34843;48.744;8.958;2023-06-14T08:34:40;31.40;64.60
3202;DHT22;34843;48.744;8.958;2023-06-14T08:37:06;32.10;63.40
3202;DHT22;34843;48.744;8.958;2023-06-14T08:39:32;31.80;63.20
3202;DHT22;34843;48.744;8.958;2023-06-14T08:41:57;30.60;64.80
3202;DHT22;34843;48.744;8.958;2023-06-14T08:44:23;29.00;66.80
3202;DHT22;34843;48.744;8.958;2023-06-14T08:46:50;27.20;68.90
3202;DHT22;34843;48.744;8.958;2023-06-14T08:49:16;25.60;71.10
3202;DHT22;34843;48.744;8.958;2023-06-14T08:51:43;24.40;72.80
3202;DHT22;34843;48.744;8.958;2023-06-14T08:54:11;23.60;75.30
3202;DHT22;34843;48.744;8.958;2023-06-14T08:56:38;23.10;78.60
3202;DHT22;34843;48.744;8.958;2023-06-14T08:59:04;22.90;78.90
3202;DHT22;34843;48.744;8.958;2023-06-14T09:01:33;22.60;78.70
3202;DHT22;34843;48.744;8.958;2023-06-14T09:04:00;22.20;79.60
3202;DHT22;34843;48.744;8.958;2023-06-14T09:06:26;21.80;80.00
3202;DHT22;34843;48.744;8.958;2023-06-14T09:08:54;21.60;82.50
3202;DHT22;34843;48.744;8.958;2023-06-14T09:11:21;21.70;83.40
3202;DHT22;34843;48.744;8.958;2023-06-14T09:13:48;21.70;83.70
3202;DHT22;34843;48.744;8.958;2023-06-14T09:16:14;21.80;84.00
3202;DHT22;34843;48.744;8.958;2023-06-14T09:18:42;21.90;84.50
3202;DHT22;34843;48.744;8.958;2023-06-14T09:21:13;21.70;84.60
3202;DHT22;34843;48.744;8.958;2023-06-14T09:23:45;21.60;86.00
3202;DHT22;34843;48.744;8.958;2023-06-14T09:26:12;21.70;86.00
3202;DHT22;34843;48.744;8.958;2023-06-14T09:28:45;22.00;87.00
3202;DHT22;34843;48.744;8.958;2023-06-14T09:31:16;22.20;87.20
3202;DHT22;34843;48.744;8.958;2023-06-14T09:33:42;22.30;84.80
3202;DHT22;34843;48.744;8.958;2023-06-14T09:36:18;22.40;85.80
3202;DHT22;34843;48.744;8.958;2023-06-14T09:38:53;22.50;86.00
3202;DHT22;34843;48.744;8.958;2023-06-14T09:41:20;22.50;89.60
3202;DHT22;34843;48.744;8.958;2023-06-14T09:43:46;22.60;87.10
3202;DHT22;34843;48.744;8.958;2023-06-14T09:46:13;22.70;85.30
3202;DHT22;34843;48.744;8.958;2023-06-14T09:48:38;22.60;84.50
3202;DHT22;34843;48.744;8.958;2023-06-14T09:51:10;22.60;83.20
3202;DHT22;34843;48.744;8.958;2023-06-14T09:53:36;22.60;85.10
3202;DHT22;34843;48.744;8.958;2023-06-14T09:56:04;22.50;83.40
3202;DHT22;34843;48.744;8.958;2023-06-14T09:58:30;22.60;85.30
3202;DHT22;34843;48.744;8.958;2023-06-14T10:00:59;22.80;83.40
3202;DHT22;34843;48.744;8.958;2023-06-14T10:03:28;23.00;81.60
3202;DHT22;34843;48.744;8.958;2023-06-14T10:05:55;23.00;80.70
3202;DHT22;34843;48.744;8.958;2023-06-14T10:08:27;22.90;82.10
3202;DHT22;34843;48.744;8.958;2023-06-14T10:10:58;22.90;78.30
3202;DHT22;34843;48.744;8.958;2023-06-14T10:13:23;23.00;81.00
3202;DHT22;34843;48.744;8.958;2023-06-14T10:15:52;23.00;80.30
3202;DHT22;34843;48.744;8.958;2023-06-14T10:23:23;23.10;79.90
3202;DHT22;34843;48.744;8.958;2023-06-14T10:25:50;23.30;78.40
3202;DHT22;34843;48.744;8.958;2023-06-14T10:28:17;23.50;81.50
3202;DHT22;34843;48.744;8.958;2023-06-14T10:33:29;23.50;76.40
3202;DHT22;34843;48.744;8.958;2023-06-14T10:36:27;23.40;77.10
3202;DHT22;34843;48.744;8.958;2023-06-14T10:39:17;23.10;74.20
3202;DHT22;34843;48.744;8.958;2023-06-14T10:41:56;22.40;76.40
3202;DHT22;34843;48.744;8.958;2023-06-14T10:46:54;22.80;77.30
3202;DHT22;34843;48.744;8.958;2023-06-14T10:49:20;23.20;75.20
3202;DHT22;34843;48.744;8.958;2023-06-14T10:52:02;23.30;76.30
3202;DHT22;34843;48.744;8.958;2023-06-14T10:54:28;23.50;78.70
3202;DHT22;34843;48.744;8.958;2023-06-14T10:56:54;23.60;79.20
3202;DHT22;34843;48.744;8.958;2023-06-14T10:59:20;23.80;76.60
3202;DHT22;34843;48.744;8.958;2023-06-14T11:04:50;23.80;75.50
3202;DHT22;34843;48.744;8.958;2023-06-14T11:12:47;24.00;79.10
3202;DHT22;34843;48.744;8.958;2023-06-14T11:15:13;24.40;78.50
3202;DHT22;34843;48.744;8.958;2023-06-14T11:17:38;25.20;75.90
3202;DHT22;34843;48.744;8.958;2023-06-14T11:20:08;24.40;75.40
3202;DHT22;34843;48.744;8.958;2023-06-14T11:22:43;24.50;76.80
3202;DHT22;34843;48.744;8.958;2023-06-14T11:25:10;24.50;77.20
3202;DHT22;34843;48.744;8.958;2023-06-14T11:27:36;24.40;77.10
3202;DHT22;34843;48.744;8.958;2023-06-14T11:30:02;24.10;76.00
3202;DHT22;34843;48.744;8.958;2023-06-14T11:32:27;24.10;77.10
3202;DHT22;34843;48.744;8.958;2023-06-14T11:34:53;24.20;78.50
3202;DHT22;34843;48.744;8.958;2023-06-14T11:37:19;24.30;79.50
3202;DHT22;34843;48.744;8.958;2023-06-14T11:39:45;24.30;75.00
3202;DHT22;34843;48.744;8.958;2023-06-14T11:42:17;24.30;76.10
3202;DHT22;34843;48.744;8.958;2023-06-14T11:44:46;24.10;74.80
3202;DHT22;34843;48.744;8.958;2023-06-14T11:47:12;24.20;74.00
3202;DHT22;34843;48.744;8.958;2023-06-14T11:49:38;23.90;73.80
3202;DHT22;34843;48.744;8.958;2023-06-14T11:52:04;24.00;76.50
3202;DHT22;34843;48.744;8.958;2023-06-14T11:54:31;24.10;72.80
3202;DHT22;34843;48.744;8.958;2023-06-14T11:56:57;23.90;73.20
3202;DHT22;34843;48.744;8.958;2023-06-14T11:59:23;24.00;74.90
3202;DHT22;34843;48.744;8.958;2023-06-14T12:01:49;24.10;74.80
3202;DHT22;34843;48.744;8.958;2023-06-14T12:04:23;24.20;76.40
3202;DHT22;34843;48.744;8.958;2023-06-14T12:06:50;24.20;75.50
3202;DHT22;34843;48.744;8.958;2023-06-14T12:09:18;23.90;74.10
3202;DHT22;34843;48.744;8.958;2023-06-14T12:11:45;23.80;75.10
3202;DHT22;34843;48.744;8.958;2023-06-14T12:14:11;23.60;75.30
3202;DHT22;34843;48.744;8.958;2023-06-14T12:16:40;23.70;75.50
3202;DHT22;34843;48.744;8.958;2023-06-14T12:19:15;23.80;75.60
3202;DHT22;34843;48.744;8.958;2023-06-14T12:21:42;24.00;73.50
3202;DHT22;34843;48.744;8.958;2023-06-14T12:24:11;24.10;75.70
3202;DHT22;34843;48.744;8.958;2023-06-14T12:26:41;23.90;74.40
3202;DHT22;34843;48.744;8.958;2023-06-14T12:29:07;23.70;74.30
3202;DHT22;34843;48.744;8.958;2023-06-14T12:31:33;23.70;75.90
3202;DHT22;34843;48.744;8.958;2023-06-14T12:33:59;23.80;74.40
3202;DHT22;34843;48.744;8.958;2023-06-14T12:36:25;23.80;74.70
3202;DHT22;34843;48.744;8.958;2023-06-14T12:38:51;23.90;75.00
3202;DHT22;34843;48.744;8.958;2023-06-14T12:41:20;23.90;75.90
3202;DHT22;34843;48.744;8.958;2023-06-14T12:43:49;24.00;73.50
3202;DHT22;34843;48.744;8.958;2023-06-14T12:46:15;23.80;72.10
3202;DHT22;34843;48.744;8.958;2023-06-14T12:48:40;23.90;74.80
3202;DHT22;34843;48.744;8.958;2023-06-14T12:51:06;23.90;72.80
3202;DHT22;34843;48.744;8.958;2023-06-14T12:53:31;23.80;71.90
3202;DHT22;34843;48.744;8.958;2023-06-14T12:55:57;23.80;73.30
3202;DHT22;34843;48.744;8.958;2023-06-14T12:58:23;23.70;73.40
3202;DHT22;34843;48.744;8.958;2023-06-14T13:00:49;23.60;73.20
3202;DHT22;34843;48.744;8.958;2023-06-14T13:03:15;23.70;75.30
3202;DHT22;34843;48.744;8.958;2023-06-14T13:05:40;23.80;75.10
3202;DHT22;34843;48.744;8.958;2023-06-14T13:08:07;24.00;75.10
3202;DHT22;34843;48.744;8.958;2023-06-14T13:10:36;24.10;73.80
3202;DHT22;34843;48.744;8.958;2023-06-14T13:13:02;24.00;73.00
3202;DHT22;34843;48.744;8.958;2023-06-14T13:15:28;24.10;76.20
3202;DHT22;34843;48.744;8.958;2023-06-14T13:17:54;24.20;73.80
3202;DHT22;34843;48.744;8.958;2023-06-14T13:20:20;24.20;74.50
3202;DHT22;34843;48.744;8.958;2023-06-14T13:22:46;24.20;72.20
3202;DHT22;34843;48.744;8.958;2023-06-14T13:25:11;24.10;71.60
3202;DHT22;34843;48.744;8.958;2023-06-14T13:27:37;24.10;71.60
3202;DHT22;34843;48.744;8.958;2023-06-14T13:30:03;23.90;71.90
3202;DHT22;34843;48.744;8.958;2023-06-14T13:32:31;23.70;71.40
3202;DHT22;34843;48.744;8.958;2023-06-14T13:34:56;23.70;73.30
3202;DHT22;34843;48.744;8.958;2023-06-14T13:37:23;23.80;72.30
3202;DHT22;34843;48.744;8.958;2023-06-14T13:39:48;24.00;72.20
3202;DHT22;34843;48.744;8.958;2023-06-14T13:42:14;24.00;71.30
3202;DHT22;34843;48.744;8.958;2023-06-14T13:44:39;23.90;70.90
3202;DHT22;34843;48.744;8.958;2023-06-14T13:47:05;23.70;71.90
3202;DHT22;34843;48.744;8.958;2023-06-14T13:49:31;23.80;75.10
3202;DHT22;34843;48.744;8.958;2023-06-14T13:51:56;24.00;73.00
3202;DHT22;34843;48.744;8.958;2023-06-14T13:54:22;24.10;75.60
3202;DHT22;34843;48.744;8.958;2023-06-14T13:56:48;24.00;73.60
3202;DHT22;34843;48.744;8.958;2023-06-14T13:59:14;24.00;73.60
3202;DHT22;34843;48.744;8.958;2023-06-14T14:01:39;23.90;75.00
3202;DHT22;34843;48.744;8.958;2023-06-14T14:04:05;24.00;76.00
3202;DHT22;34843;48.744;8.958;2023-06-14T14:06:31;24.20;74.00
3202;DHT22;34843;48.744;8.958;2023-06-14T14:08:57;24.30;73.20
3202;DHT22;34843;48.744;8.958;2023-06-14T14:11:23;24.30;73.70
3202;DHT22;34843;48.744;8.958;2023-06-14T14:13:48;24.30;72.80
3202;DHT22;34843;48.744;8.958;2023-06-14T14:16:14;24.20;73.30
3202;DHT22;34843;48.744;8.958;2023-06-14T14:18:40;24.20;73.60
3202;DHT22;34843;48.744;8.958;2023-06-14T14:21:05;24.30;73.40
3202;DHT22;34843;48.744;8.958;2023-06-14T14:23:31;24.40;73.40
3202;DHT22;34843;48.744;8.958;2023-06-14T14:25:57;24.50;73.60
3202;DHT22;34843;48.744;8.958;2023-06-14T14:28:22;24.30;73.70
3202;DHT22;34843;48.744;8.958;2023-06-14T14:30:48;24.10;74.20
3202;DHT22;34843;48.744;8.958;2023-06-14T14:33:14;24.10;74.10
3202;DHT22;34843;48.744;8.958;2023-06-14T14:35:44;24.10;75.00
3202;DHT22;34843;48.744;8.958;2023-06-14T14:38:15;24.30;76.00
3202;DHT22;34843;48.744;8.958;2023-06-14T14:40:42;24.30;75.00
3202;DHT22;34843;48.744;8.958;2023-06-14T14:43:07;24.20;76.00
3202;DHT22;34843;48.744;8.958;2023-06-14T14:45:33;24.00;73.90
3202;DHT22;34843;48.744;8.958;2023-06-14T14:48:00;23.80;75.80
3202;DHT22;34843;48.744;8.958;2023-06-14T14:50:27;23.50;73.10
3202;DHT22;34843;48.744;8.958;2023-06-14T14:52:52;23.50;72.90
3202;DHT22;34843;48.744;8.958;2023-06-14T14:55:18;23.60;72.40
3202;DHT22;34843;48.744;8.958;2023-06-14T14:57:45;23.80;74.10
3202;DHT22;34843;48.744;8.958;2023-06-14T15:00:11;23.90;74.10
3202;DHT22;34843;48.744;8.958;2023-06-14T15:02:36;23.90;73.80
3202;DHT22;34843;48.744;8.958;2023-06-14T15:05:02;24.00;76.30
3202;DHT22;34843;48.744;8.958;2023-06-14T15:07:28;24.20;74.10
3202;DHT22;34843;48.744;8.958;2023-06-14T15:09:54;23.90;73.90
3202;DHT22;34843;48.744;8.958;2023-06-14T15:12:20;23.70;74.10
3202;DHT22;34843;48.744;8.958;2023-06-14T15:14:51;23.70;74.70
3202;DHT22;34843;48.744;8.958;2023-06-14T15:17:18;23.70;75.80
3202;DHT22;34843;48.744;8.958;2023-06-14T15:19:45;23.80;75.40
3202;DHT22;34843;48.744;8.958;2023-06-14T15:22:10;23.90;76.70
3202;DHT22;34843;48.744;8.958;2023-06-14T15:24:36;23.90;77.00
3202;DHT22;34843;48.744;8.958;2023-06-14T15:27:01;24.00;77.70
3202;DHT22;34843;48.744;8.958;2023-06-14T15:29:28;24.00;77.40
3202;DHT22;34843;48.744;8.958;2023-06-14T15:31:53;24.00;75.40
3202;DHT22;34843;48.744;8.958;2023-06-14T15:34:20;23.80;75.30
3202;DHT22;34843;48.744;8.958;2023-06-14T15:36:46;23.80;75.40
3202;DHT22;34843;48.744;8.958;2023-06-14T15:39:11;23.80;75.60
3202;DHT22;34843;48.744;8.958;2023-06-14T15:41:37;23.80;76.80
3202;DHT22;34843;48.744;8.958;2023-06-14T15:44:03;23.90;76.50
3202;DHT22;34843;48.744;8.958;2023-06-14T15:46:28;24.00;76.70
3202;DHT22;34843;48.744;8.958;2023-06-14T15:48:54;24.10;75.70
3202;DHT22;34843;48.744;8.958;2023-06-14T15:51:20;24.00;75.70
3202;DHT22;34843;48.744;8.958;2023-06-14T15:53:45;24.00;75.70
3202;DHT22;34843;48.744;8.958;2023-06-14T15:56:11;24.10;76.60
3202;DHT22;34843;48.744;8.958;2023-06-14T15:58:36;24.10;75.30
3202;DHT22;34843;48.744;8.958;2023-06-14T16:01:02;24.30;74.90
3202;DHT22;34843;48.744;8.958;2023-06-14T16:03:27;24.00;73.70
3202;DHT22;34843;48.744;8.958;2023-06-14T16:05:53;24.10;74.60
3202;DHT22;34843;48.744;8.958;2023-06-14T16:08:18;24.10;75.40